Terminal Aerodrome Forecast
Issued by NWS Sterling, VA

Home | Current Version | Previous Version | Text Only | Print | Product List | Glossary On
Versions: 1 2 3 4 5 6 7 8 9 10 11 12 13 14 15 16 17 18 19 20
825
FTUS41 KLWX 300837 AAA
TAFDCA
TAF AMD
KDCA 300837Z 3009/3106 34006KT P6SM OVC022
     FM301500 VRB03KT 5SM -SHRA OVC035
     FM301600 VRB03KT P6SM OVC035
     FM310400 20004KT 5SM BR BKN120=

USA.gov is the U.S. government's official web portal to all federal, state and local government web resources and services.